Detall de PIREP

Printer-friendly versionPDF version

[2015/03/22 11:06:00]
Flight IATA:CT2306
Pilot Number:012
Company ICAO:CAT
Aircraft Type:B738/F
PAX:160
Departing Airport: LIEA
Destination Airport: LIRP
Alternate Airport:LIMC
Online: VATSIM
Route:MINKA UL5 BATOX UZ254 ELB UM729 NORNI
Flight Level:F310
No Slew and time accel
No pause
Crash detect
Detect pilot in Cockpit between each 30 and 45 minutes
11:06 Zero fuel Weight: 122230 Lbs, Fuel Weight: 13024 Lbs
11:06 VATSIM:LIEA 221050Z 07006KT 040V100 9999 SCT040 16/11 Q1007
11:06 VATSIM:LIRP 221045Z 12009KT 9999 SCT040 BKN080 14/07 Q1012 NOSIG
11:07 Parking Brakes off
11:12 Take-off
11:12 Take off Weight: 134701 Lbs
11:12 Wind: 065º @ 006 Knots Heading: 024º
11:12 POS N40º 37´ 55´´ E008º 17´ 27´´
11:12 Gear Up: 156 Knots
11:12 Flaps:3 at 156 Knots
11:12 Flaps:2 at 183 Knots
11:13 Flaps:1 at 199 Knots
11:16 Flaps:0 at 189 Knots
11:27 Wind:233º@018 Knots Heading: 069º Ground Speed: 481 Knots Altitude 30065 ft
11:28 TOC
11:28 Fuel Weight: 9166 Lb
11:40 TOD
11:40 Fuel Weight: 7907 Lb
11:42 Wind:003º@000 Knots Heading: 331º Ground Speed: 449 Knots Altitude 26640 ft
11:48 Flaps:1 at 266 Knots
11:49 Flaps:2 at 242 Knots
11:49 Flaps:3 at 239 Knots
11:52 Flaps:4 at 214 Knots
11:53 Gear Down: 218 Knots
11:53 Flaps:5 at 196 Knots
11:55 Flaps:6 at 182 Knots
11:55 Flaps:7 at 174 Knots
11:56 TouchDown:Rate -132 ft/min Speed: 133 Knots
11:56 Flaps:6 at 63 Knots
11:56 Flaps:0 at 58 Knots
11:56 VATSIM:LIRP 221115Z 12010KT 9999 SCT040 BKN080 14/07 Q1012 NOSIG
11:56 Land
11:56 Wind:117º@010 Knots
11:56 Heading: 040º
11:56 Flight Duration: 00:44
11:56 Landing Weight: 129502 Lbs
11:56 POS N43º 41´ 11´´ E010º 23´ 50´´
11:58 Parking brakes on
11:58 Block to Block Duration: 00:51
11:58 Final Fuel: 7182 Lbls
11:58 Spent Fuel: 5842 Lbls
11:58 Flight Length: 275 NM
11:58 TOD Land Length: 85 NM

Exportar CSV

Powered by Drupal - Modified by Danger4k